createdAt,value
2023-02-22T00:00:36.722Z,7.88
2023-02-22T00:03:04.338Z,7.88
2023-02-22T00:05:31.723Z,7.80
2023-02-22T00:08:00.914Z,7.57
2023-02-22T00:10:28.593Z,7.40
2023-02-22T00:12:56.549Z,7.47
2023-02-22T00:15:27.777Z,6.88
2023-02-22T00:17:57.173Z,7.55
2023-02-22T00:20:24.900Z,8.02
2023-02-22T00:22:53.414Z,8.05
2023-02-22T00:25:21.937Z,7.57
2023-02-22T00:27:51.527Z,7.32
2023-02-22T00:30:26.734Z,7.55
2023-02-22T00:32:56.038Z,8.10
2023-02-22T00:35:25.479Z,7.65
2023-02-22T00:37:55.303Z,7.65
2023-02-22T00:40:24.283Z,7.15
2023-02-22T00:42:52.228Z,7.60
2023-02-22T00:45:21.719Z,7.15
2023-02-22T00:47:49.592Z,7.10
2023-02-22T00:50:17.994Z,7.72
2023-02-22T00:52:46.076Z,7.28
2023-02-22T00:55:24.914Z,7.47
2023-02-22T00:57:52.437Z,8.02
2023-02-22T01:00:21.856Z,7.82
2023-02-22T01:02:52.213Z,8.07
2023-02-22T01:05:23.029Z,7.63
2023-02-22T01:07:50.656Z,7.80
2023-02-22T01:10:19.783Z,8.10
2023-02-22T01:12:47.682Z,7.95
2023-02-22T01:15:15.836Z,7.75
2023-02-22T01:17:44.147Z,8.60
2023-02-22T01:20:14.862Z,7.93
2023-02-22T01:22:43.126Z,8.02
2023-02-22T01:25:11.762Z,8.38
2023-02-22T01:27:39.772Z,7.95
2023-02-22T01:30:08.779Z,8.02
2023-02-22T01:32:37.114Z,7.65
2023-02-22T01:35:06.153Z,7.80
2023-02-22T01:37:33.617Z,7.25
2023-02-22T01:40:01.033Z,8.18
2023-02-22T01:42:29.501Z,7.68
2023-02-22T01:45:15.525Z,7.30
2023-02-22T01:47:43.248Z,7.47
2023-02-22T01:50:10.724Z,6.78
2023-02-22T01:52:38.354Z,7.35
2023-02-22T01:55:06.074Z,6.95
2023-02-22T01:57:35.545Z,7.47
2023-02-22T02:00:11.975Z,7.88
2023-02-22T02:02:45.377Z,7.60
2023-02-22T02:05:13.634Z,7.22
2023-02-22T02:07:41.375Z,7.05
2023-02-22T02:10:15.402Z,7.43
2023-02-22T02:12:44.598Z,7.93
2023-02-22T02:15:29.002Z,7.32
2023-02-22T02:17:57.973Z,7.13
2023-02-22T02:20:32.571Z,6.57
2023-02-22T02:23:16.453Z,6.97
2023-02-22T02:25:51.518Z,7.68
2023-02-22T02:28:19.041Z,6.78
2023-02-22T02:31:02.091Z,6.72
2023-02-22T02:33:29.547Z,7.25
2023-02-22T02:36:15.374Z,6.70
2023-02-22T02:38:45.925Z,8.38
2023-02-22T02:41:13.462Z,7.05
2023-02-22T02:43:52.181Z,6.70
2023-02-22T02:46:19.675Z,7.10
2023-02-22T02:48:54.813Z,7.07
2023-02-22T02:51:25.319Z,7.25
2023-02-22T02:53:53.396Z,6.95
2023-02-22T02:56:23.523Z,6.90
2023-02-22T02:58:52.916Z,6.72
2023-02-22T03:01:33.497Z,7.05
2023-02-22T03:04:30.366Z,7.18
2023-02-22T03:07:19.342Z,7.15
2023-02-22T03:09:46.764Z,7.22
2023-02-22T03:12:14.884Z,7.20
2023-02-22T03:14:48.613Z,7.13
2023-02-22T03:17:24.098Z,7.10
2023-02-22T03:19:52.865Z,7.15
2023-02-22T03:22:25.077Z,7.30
2023-02-22T03:24:59.023Z,6.90
2023-02-22T03:27:35.092Z,6.63
2023-02-22T03:30:08.349Z,7.50
2023-02-22T03:32:41.296Z,7.20
2023-02-22T03:35:11.080Z,6.88
2023-02-22T03:37:41.575Z,7.30
2023-02-22T03:40:14.447Z,7.30
2023-02-22T03:42:51.750Z,7.03
2023-02-22T03:45:23.367Z,6.65
2023-02-22T03:47:54.563Z,6.47
2023-02-22T03:50:26.288Z,6.78
2023-02-22T03:52:54.233Z,7.45
2023-02-22T03:55:28.853Z,7.00
2023-02-22T03:57:58.549Z,6.55
2023-02-22T04:00:30.695Z,6.63
2023-02-22T04:02:58.778Z,6.80
2023-02-22T04:05:26.412Z,7.38
2023-02-22T04:07:54.675Z,7.22
2023-02-22T04:10:22.569Z,7.68
2023-02-22T04:12:50.925Z,7.82
2023-02-22T04:15:20.242Z,7.35
2023-02-22T04:17:49.272Z,7.45
2023-02-22T04:20:20.010Z,7.78
2023-02-22T04:23:04.859Z,7.53
2023-02-22T04:25:32.954Z,6.65
2023-02-22T04:28:11.144Z,7.05
2023-02-22T04:30:50.391Z,7.50
2023-02-22T04:33:19.437Z,7.38
2023-02-22T04:35:47.253Z,8.10
2023-02-22T04:38:15.517Z,7.80
2023-02-22T04:40:42.963Z,8.20
2023-02-22T04:43:10.597Z,8.45
2023-02-22T04:45:38.030Z,7.40
2023-02-22T04:48:06.694Z,8.32
2023-02-22T04:50:34.145Z,8.55
2023-02-22T04:53:03.508Z,8.52
2023-02-22T04:55:31.144Z,8.15
2023-02-22T04:57:58.750Z,9.18
2023-02-22T05:00:27.100Z,9.85
2023-02-22T05:02:59.677Z,10.32
2023-02-22T05:05:27.268Z,9.48
2023-02-22T05:07:54.684Z,9.63
2023-02-22T05:10:22.215Z,8.80
2023-02-22T05:12:49.588Z,8.75
2023-02-22T05:15:18.121Z,8.15
2023-02-22T05:17:45.562Z,8.23
2023-02-22T05:20:19.799Z,8.07
2023-02-22T05:22:47.367Z,8.82
2023-02-22T05:25:14.800Z,8.05
2023-02-22T05:27:42.244Z,8.70
2023-02-22T05:30:11.671Z,7.90
2023-02-22T05:32:39.378Z,8.25
2023-02-22T05:35:08.423Z,9.10
2023-02-22T05:37:36.901Z,8.73
2023-02-22T05:40:04.607Z,8.30
2023-02-22T05:42:32.149Z,9.70
2023-02-22T05:45:00.433Z,10.45
2023-02-22T05:47:28.015Z,9.93
2023-02-22T05:49:55.508Z,10.35
2023-02-22T05:52:22.897Z,9.55
2023-02-22T05:54:50.843Z,9.27
2023-02-22T05:57:18.261Z,9.38
2023-02-22T05:59:45.733Z,8.77
2023-02-22T06:02:13.308Z,9.50
2023-02-22T06:04:40.826Z,9.00
2023-02-22T06:07:08.201Z,8.75
2023-02-22T06:09:35.701Z,9.27
2023-02-22T06:12:03.793Z,9.23
2023-02-22T06:14:31.260Z,9.25
2023-02-22T06:16:59.252Z,9.07
2023-02-22T06:19:26.665Z,8.70
2023-02-22T06:21:55.264Z,8.27
2023-02-22T06:24:23.071Z,6.95
2023-02-22T06:27:00.171Z,7.10
2023-02-22T06:29:28.249Z,7.15
2023-02-22T06:31:56.220Z,6.32
2023-02-22T06:34:23.755Z,7.38
2023-02-22T06:36:51.427Z,6.47
2023-02-22T06:39:19.062Z,6.45
2023-02-22T06:41:47.313Z,7.00
2023-02-22T06:44:15.551Z,6.68
2023-02-22T06:46:48.394Z,7.00
2023-02-22T06:49:15.903Z,7.07
2023-02-22T06:51:43.650Z,6.85
2023-02-22T06:54:11.123Z,6.93
2023-02-22T06:56:38.540Z,7.03
2023-02-22T06:59:06.010Z,7.07
2023-02-22T07:01:33.498Z,7.07
2023-02-22T07:04:00.981Z,7.85
2023-02-22T07:06:28.591Z,7.82
2023-02-22T07:08:56.076Z,7.80
2023-02-22T07:11:23.533Z,6.40
2023-02-22T07:13:50.923Z,6.32
2023-02-22T07:16:18.379Z,5.57
2023-02-22T07:18:45.830Z,6.85
2023-02-22T07:21:13.260Z,6.13
2023-02-22T07:23:40.687Z,6.90
2023-02-22T07:26:08.081Z,6.75
2023-02-22T07:28:35.642Z,5.75
2023-02-22T07:31:03.163Z,6.55
2023-02-22T07:33:30.699Z,6.32
2023-02-22T07:35:58.113Z,6.80
2023-02-22T07:38:25.638Z,6.00
2023-02-22T07:40:53.126Z,6.63
2023-02-22T07:43:22.332Z,6.95
2023-02-22T07:45:50.956Z,6.90
2023-02-22T07:48:19.035Z,6.72
2023-02-22T07:50:46.430Z,7.18
2023-02-22T07:53:21.649Z,6.40
2023-02-22T07:55:51.122Z,6.38
2023-02-22T07:58:23.403Z,5.80
2023-02-22T08:00:50.844Z,7.32
2023-02-22T08:03:19.462Z,7.40
2023-02-22T08:05:48.140Z,7.05
2023-02-22T08:08:18.728Z,7.18
2023-02-22T08:10:47.253Z,7.18
2023-02-22T08:13:14.678Z,7.43
2023-02-22T08:15:44.270Z,7.75
2023-02-22T08:18:13.791Z,6.95
2023-02-22T08:20:42.186Z,7.57
2023-02-22T08:23:10.047Z,7.97
2023-02-22T08:25:37.745Z,7.35
2023-02-22T08:28:24.511Z,8.05
2023-02-22T08:30:52.377Z,7.80
2023-02-22T08:33:20.369Z,6.85
2023-02-22T08:35:52.129Z,8.40
2023-02-22T08:38:23.844Z,7.80
2023-02-22T08:40:51.666Z,7.30
2023-02-22T08:43:19.886Z,8.20
2023-02-22T08:45:47.574Z,6.20
2023-02-22T08:48:15.633Z,6.75
2023-02-22T08:50:44.482Z,6.93
2023-02-22T08:53:13.726Z,6.57
2023-02-22T08:55:42.085Z,7.38
2023-02-22T08:58:10.292Z,6.18
2023-02-22T09:00:38.844Z,6.32
2023-02-22T09:03:11.930Z,6.13
2023-02-22T09:05:39.653Z,6.57
2023-02-22T09:08:07.342Z,6.68
2023-02-22T09:10:35.804Z,6.63
2023-02-22T09:13:04.183Z,6.82
2023-02-22T09:15:32.107Z,7.13
2023-02-22T09:18:00.166Z,6.85
2023-02-22T09:20:28.286Z,6.50
2023-02-22T09:22:55.914Z,7.07
2023-02-22T09:25:24.120Z,6.22
2023-02-22T09:27:52.372Z,5.95
2023-02-22T09:30:33.555Z,6.82
2023-02-22T09:33:05.922Z,6.75
2023-02-22T09:35:36.268Z,6.93
2023-02-22T09:38:06.299Z,6.45
2023-02-22T09:40:36.714Z,6.53
2023-02-22T09:43:22.127Z,5.63
2023-02-22T09:46:13.594Z,5.85
2023-02-22T09:48:49.674Z,5.80
2023-02-22T09:51:18.445Z,6.25
2023-02-22T09:53:49.742Z,5.75
2023-02-22T09:56:19.484Z,5.90
2023-02-22T09:58:48.143Z,7.00
2023-02-22T10:01:39.312Z,6.50
2023-02-22T10:04:06.864Z,6.22
2023-02-22T10:06:35.496Z,5.97
2023-02-22T10:09:08.451Z,6.05
2023-02-22T10:11:38.982Z,6.53
2023-02-22T10:14:14.602Z,7.45
2023-02-22T10:17:08.494Z,5.32
2023-02-22T10:19:54.929Z,5.13
2023-02-22T10:22:25.987Z,5.50
2023-02-22T10:24:53.432Z,5.30
2023-02-22T10:27:30.992Z,5.32
2023-02-22T10:30:22.063Z,5.78
2023-02-22T10:33:11.756Z,6.50
2023-02-22T10:35:41.292Z,5.50
2023-02-22T10:38:17.767Z,28.13
2023-02-22T10:40:54.898Z,18.80
2023-02-22T10:43:23.542Z,12.40
2023-02-22T10:45:53.870Z,10.95
2023-02-22T10:48:22.283Z,4.72
2023-02-22T10:50:50.584Z,12.05
2023-02-22T10:53:18.116Z,5.82
2023-02-22T10:56:04.396Z,4.82
2023-02-22T10:58:41.308Z,5.50
2023-02-22T11:01:21.086Z,5.35
2023-02-22T11:03:57.795Z,6.72
2023-02-22T11:06:25.384Z,4.60
2023-02-22T11:08:52.793Z,4.07
2023-02-22T11:11:29.193Z,5.80
2023-02-22T11:13:57.278Z,5.50
2023-02-22T11:16:29.533Z,5.03
2023-02-22T11:19:01.354Z,4.80
2023-02-22T11:21:30.999Z,5.30
2023-02-22T11:24:06.048Z,4.80
2023-02-22T11:26:44.571Z,3.95
2023-02-22T11:29:13.846Z,4.72
2023-02-22T11:31:45.142Z,3.90
2023-02-22T11:34:28.039Z,3.53
2023-02-22T11:36:56.601Z,3.42
2023-02-22T11:39:24.476Z,3.72
2023-02-22T11:41:52.004Z,3.92
2023-02-22T11:44:28.724Z,3.95
2023-02-22T11:46:57.809Z,4.72
2023-02-22T11:49:33.318Z,3.70
2023-02-22T11:52:01.146Z,4.20
2023-02-22T11:54:46.221Z,4.60
2023-02-22T11:57:22.158Z,5.65
2023-02-22T11:59:55.976Z,3.58
2023-02-22T12:02:26.279Z,3.50
2023-02-22T12:05:02.279Z,3.38
2023-02-22T12:07:32.605Z,3.80
2023-02-22T12:10:05.515Z,3.75
2023-02-22T12:12:35.872Z,4.15
2023-02-22T12:15:07.663Z,3.22
2023-02-22T12:17:35.158Z,3.55
2023-02-22T12:20:02.644Z,3.28
2023-02-22T12:22:35.330Z,3.38
2023-02-22T12:25:19.553Z,4.00
2023-02-22T12:27:49.734Z,3.58
2023-02-22T12:30:24.011Z,3.53
2023-02-22T12:32:56.270Z,4.45
2023-02-22T12:35:26.769Z,4.30
2023-02-22T12:37:54.263Z,3.75
2023-02-22T12:40:40.508Z,4.43
2023-02-22T12:43:22.489Z,4.50
2023-02-22T12:45:59.178Z,4.03
2023-02-22T12:48:26.713Z,4.03
2023-02-22T12:50:59.633Z,4.15
2023-02-22T12:53:34.721Z,4.47
2023-02-22T12:56:11.251Z,4.00
2023-02-22T12:58:47.296Z,5.53
2023-02-22T13:01:18.107Z,4.60
2023-02-22T13:03:46.448Z,4.05
2023-02-22T13:06:40.255Z,4.50
2023-02-22T13:09:13.831Z,5.00
2023-02-22T13:11:41.217Z,5.03
2023-02-22T13:14:08.579Z,4.60
2023-02-22T13:16:52.621Z,4.70
2023-02-22T13:19:29.249Z,4.47
2023-02-22T13:22:00.345Z,4.60
2023-02-22T13:24:41.690Z,4.28
2023-02-22T13:27:31.211Z,3.92
2023-02-22T13:29:59.665Z,4.00
2023-02-22T13:32:33.189Z,4.28
2023-02-22T13:35:09.843Z,3.50
2023-02-22T13:37:56.066Z,4.20
2023-02-22T13:40:42.520Z,4.15
2023-02-22T13:43:09.944Z,4.13
2023-02-22T13:45:37.317Z,3.70
2023-02-22T13:48:37.227Z,3.65
2023-02-22T13:51:13.643Z,3.75
2023-02-22T13:53:43.840Z,3.55
2023-02-22T13:56:12.040Z,3.60
2023-02-22T13:59:08.762Z,3.80
2023-02-22T14:01:40.670Z,4.60
2023-02-22T14:04:22.067Z,5.47
2023-02-22T14:06:49.794Z,5.40
2023-02-22T14:09:19.976Z,5.70
2023-02-22T14:11:48.814Z,6.55
2023-02-22T14:14:17.893Z,6.95
2023-02-22T14:16:45.549Z,5.95
2023-02-22T14:19:23.847Z,7.22
2023-02-22T14:22:05.944Z,5.85
2023-02-22T14:24:43.389Z,6.30
2023-02-22T14:27:11.627Z,6.40
2023-02-22T14:29:39.226Z,6.38
2023-02-22T14:32:08.259Z,6.30
2023-02-22T14:34:41.759Z,6.57
2023-02-22T14:37:12.331Z,5.75
2023-02-22T14:39:49.468Z,6.30
2023-02-22T14:42:22.187Z,6.38
2023-02-22T14:44:55.464Z,6.28
2023-02-22T14:47:39.973Z,6.38
2023-02-22T14:50:27.778Z,8.03
2023-02-22T14:53:07.000Z,11.68
2023-02-22T14:55:38.177Z,7.75
2023-02-22T14:58:11.245Z,7.25
2023-02-22T15:00:45.952Z,6.82
2023-02-22T15:03:34.320Z,7.47
2023-02-22T15:06:14.897Z,10.35
2023-02-22T15:08:48.675Z,8.38
2023-02-22T15:11:31.139Z,9.63
2023-02-22T15:13:59.218Z,11.88
2023-02-22T15:16:31.474Z,15.68
2023-02-22T15:19:00.107Z,15.60
2023-02-22T15:21:29.286Z,19.75
2023-02-22T15:23:56.712Z,13.35
2023-02-22T15:26:49.160Z,14.15
2023-02-22T15:29:30.388Z,12.45
2023-02-22T15:31:58.548Z,24.63
2023-02-22T15:34:30.395Z,23.88
2023-02-22T15:36:58.888Z,24.67
2023-02-22T15:39:29.604Z,15.73
2023-02-22T15:42:08.068Z,11.63
2023-02-22T15:44:44.690Z,16.83
2023-02-22T15:47:18.219Z,12.88
2023-02-22T15:49:46.484Z,9.40
2023-02-22T15:52:21.899Z,9.35
2023-02-22T15:54:50.989Z,11.63
2023-02-22T15:57:19.833Z,11.07
2023-02-22T15:59:54.461Z,11.45
2023-02-22T16:02:33.040Z,10.93
2023-02-22T16:05:02.324Z,16.23
2023-02-22T16:07:30.488Z,25.10
2023-02-22T16:09:58.065Z,32.28
2023-02-22T16:12:27.154Z,65.75
2023-02-22T16:14:54.975Z,17.25
2023-02-22T16:17:28.817Z,11.68
2023-02-22T16:19:56.374Z,10.50
2023-02-22T16:22:36.809Z,12.40
2023-02-22T16:25:16.722Z,13.68
2023-02-22T16:27:49.671Z,17.52
2023-02-22T16:30:24.436Z,15.45
2023-02-22T16:32:53.133Z,18.42
2023-02-22T16:35:20.671Z,13.45
2023-02-22T16:37:49.419Z,14.38
2023-02-22T16:40:22.910Z,12.40
2023-02-22T16:42:51.613Z,12.10
2023-02-22T16:45:20.239Z,11.10
2023-02-22T16:47:47.696Z,13.05
2023-02-22T16:50:18.848Z,12.75
2023-02-22T16:52:47.222Z,13.55
2023-02-22T16:55:15.761Z,12.05
2023-02-22T16:57:43.982Z,11.43
2023-02-22T17:00:31.197Z,12.68
2023-02-22T17:02:59.618Z,12.82
2023-02-22T17:05:27.136Z,14.23
2023-02-22T17:07:54.649Z,13.38
2023-02-22T17:10:22.318Z,14.48
2023-02-22T17:12:56.002Z,14.90
2023-02-22T17:15:25.125Z,28.65
2023-02-22T17:17:53.315Z,36.65
2023-02-22T17:20:41.389Z,16.67
2023-02-22T17:23:09.507Z,14.85
2023-02-22T17:25:39.762Z,17.05
2023-02-22T17:28:07.784Z,27.02
2023-02-22T17:30:36.064Z,18.58
2023-02-22T17:33:05.149Z,17.90
2023-02-22T17:35:36.584Z,14.30
2023-02-22T17:38:06.304Z,14.68
2023-02-22T17:40:34.434Z,14.85
2023-02-22T17:43:02.033Z,15.90
2023-02-22T17:45:29.933Z,17.02
2023-02-22T17:48:00.054Z,18.35
2023-02-22T17:50:28.179Z,16.02
2023-02-22T17:52:55.657Z,16.23
2023-02-22T17:55:23.369Z,15.65
2023-02-22T17:57:58.402Z,16.85
2023-02-22T18:00:33.189Z,15.77
2023-02-22T18:03:08.080Z,16.02
2023-02-22T18:05:39.624Z,17.60
2023-02-22T18:08:07.079Z,15.10
2023-02-22T18:10:34.562Z,15.60
2023-02-22T18:13:02.141Z,14.07
2023-02-22T18:15:29.949Z,13.00
2023-02-22T18:17:57.766Z,12.45
2023-02-22T18:20:31.221Z,12.77
2023-02-22T18:22:59.866Z,13.52
2023-02-22T18:25:27.614Z,12.70
2023-02-22T18:27:55.875Z,12.45
2023-02-22T18:30:24.309Z,10.73
2023-02-22T18:32:52.225Z,12.10
2023-02-22T18:35:19.653Z,11.30
2023-02-22T18:37:47.082Z,10.95
2023-02-22T18:40:14.633Z,10.43
2023-02-22T18:42:42.084Z,10.25
2023-02-22T18:45:09.813Z,10.07
2023-02-22T18:47:42.261Z,9.88
2023-02-22T18:50:10.902Z,12.25
2023-02-22T18:52:44.927Z,12.23
2023-02-22T18:55:16.429Z,12.27
2023-02-22T18:57:44.062Z,12.15
2023-02-22T19:00:14.733Z,11.27
2023-02-22T19:02:45.841Z,11.95
2023-02-22T19:05:17.391Z,11.63
2023-02-22T19:07:45.271Z,10.88
2023-02-22T19:10:12.846Z,10.07
2023-02-22T19:12:40.423Z,9.20
2023-02-22T19:15:08.198Z,9.02
2023-02-22T19:17:36.672Z,9.60
2023-02-22T19:20:06.790Z,9.07
2023-02-22T19:22:34.801Z,8.45
2023-02-22T19:25:03.353Z,7.88
2023-02-22T19:27:30.793Z,8.38
2023-02-22T19:29:58.796Z,8.45
2023-02-22T19:32:26.469Z,7.82
2023-02-22T19:35:02.201Z,8.85
2023-02-22T19:37:34.950Z,9.27
2023-02-22T19:40:03.503Z,8.43
2023-02-22T19:42:30.990Z,8.43
2023-02-22T19:44:58.502Z,8.27
2023-02-22T19:47:25.943Z,7.43
2023-02-22T19:49:53.556Z,7.68
2023-02-22T19:52:20.924Z,7.97
2023-02-22T19:54:49.862Z,8.50
2023-02-22T19:57:17.233Z,8.75
2023-02-22T19:59:44.936Z,8.32
2023-02-22T20:02:12.994Z,9.10
2023-02-22T20:04:40.679Z,7.15
2023-02-22T20:07:08.143Z,8.57
2023-02-22T20:09:40.511Z,8.30
2023-02-22T20:12:08.260Z,7.25
2023-02-22T20:14:36.194Z,10.60
2023-02-22T20:17:04.936Z,8.38
2023-02-22T20:19:32.527Z,9.55
2023-02-22T20:22:00.419Z,7.88
2023-02-22T20:24:27.921Z,8.93
2023-02-22T20:26:57.336Z,8.35
2023-02-22T20:29:29.692Z,7.55
2023-02-22T20:31:58.441Z,7.22
2023-02-22T20:34:27.310Z,6.97
2023-02-22T20:36:54.773Z,7.32
2023-02-22T20:39:22.145Z,7.22
2023-02-22T20:41:49.729Z,7.70
2023-02-22T20:44:18.249Z,7.13
2023-02-22T20:46:46.345Z,6.72
2023-02-22T20:49:17.197Z,6.88
2023-02-22T20:51:45.479Z,6.90
2023-02-22T20:54:13.182Z,6.93
2023-02-22T20:56:44.419Z,7.05
2023-02-22T20:59:13.309Z,6.45
2023-02-22T21:01:41.002Z,6.32
2023-02-22T21:04:10.055Z,6.65
2023-02-22T21:06:38.971Z,6.78
2023-02-22T21:09:08.851Z,6.75
2023-02-22T21:11:36.521Z,6.93
2023-02-22T21:14:04.434Z,6.55
2023-02-22T21:16:33.180Z,7.22
2023-02-22T21:19:02.010Z,6.40
2023-02-22T21:21:29.959Z,6.43
2023-02-22T21:24:01.684Z,6.90
2023-02-22T21:26:33.525Z,6.20
2023-02-22T21:29:04.685Z,6.72
2023-02-22T21:31:32.962Z,7.05
2023-02-22T21:34:00.773Z,6.43
2023-02-22T21:36:29.430Z,6.75
2023-02-22T21:38:58.532Z,7.25
2023-02-22T21:41:27.917Z,7.30
2023-02-22T21:43:56.739Z,6.15
2023-02-22T21:46:24.898Z,7.60
2023-02-22T21:48:52.455Z,6.70
2023-02-22T21:51:25.361Z,6.72
2023-02-22T21:53:56.004Z,6.47
2023-02-22T21:56:27.350Z,6.15
2023-02-22T21:58:59.288Z,6.68
2023-02-22T22:01:31.781Z,6.95
2023-02-22T22:04:00.063Z,7.10
2023-02-22T22:06:28.428Z,7.07
2023-02-22T22:08:56.165Z,7.00
2023-02-22T22:11:25.066Z,7.28
2023-02-22T22:13:56.996Z,6.43
2023-02-22T22:16:27.126Z,6.45
2023-02-22T22:18:55.825Z,6.78
2023-02-22T22:21:24.121Z,6.57
2023-02-22T22:23:54.490Z,6.90
2023-02-22T22:26:24.621Z,6.35
2023-02-22T22:28:53.825Z,6.35
2023-02-22T22:31:22.275Z,6.57
2023-02-22T22:33:50.079Z,7.20
2023-02-22T22:36:18.499Z,7.05
2023-02-22T22:38:49.244Z,6.47
2023-02-22T22:41:19.064Z,7.40
2023-02-22T22:43:47.237Z,6.78
2023-02-22T22:46:16.351Z,7.18
2023-02-22T22:48:47.057Z,6.63
2023-02-22T22:51:16.475Z,6.60
2023-02-22T22:53:45.510Z,6.97
2023-02-22T22:56:17.475Z,7.10
2023-02-22T22:58:48.952Z,7.40
2023-02-22T23:01:18.322Z,7.55
2023-02-22T23:03:55.216Z,7.43
2023-02-22T23:06:27.033Z,7.85
2023-02-22T23:09:00.081Z,6.97
2023-02-22T23:11:33.774Z,6.95
2023-02-22T23:14:03.734Z,7.28
2023-02-22T23:16:32.359Z,6.93
2023-02-22T23:18:59.917Z,7.57
2023-02-22T23:21:27.380Z,6.43
2023-02-22T23:23:58.772Z,7.00
2023-02-22T23:26:26.967Z,7.03
2023-02-22T23:28:59.212Z,6.75
2023-02-22T23:31:28.754Z,7.00
2023-02-22T23:33:58.677Z,6.72
2023-02-22T23:36:27.127Z,6.55
2023-02-22T23:38:54.619Z,6.82
2023-02-22T23:41:25.112Z,7.03
2023-02-22T23:43:52.700Z,7.15
2023-02-22T23:46:20.129Z,6.70
2023-02-22T23:48:54.752Z,6.28
2023-02-22T23:51:26.401Z,6.18
2023-02-22T23:53:57.495Z,6.18
2023-02-22T23:56:26.566Z,6.63
2023-02-22T23:58:57.348Z,6.13
